sensor_id;sensor_type;location;lat;lon;timestamp;P1;durP1;ratioP1;P2;durP2;ratioP2
8993;SDS011;4532;50.886;4.700;2023-04-03T00:01:44;9.70;;;5.87;;
8993;SDS011;4532;50.886;4.700;2023-04-03T00:04:17;7.60;;;5.13;;
8993;SDS011;4532;50.886;4.700;2023-04-03T00:06:46;6.20;;;4.90;;
8993;SDS011;4532;50.886;4.700;2023-04-03T00:09:18;8.13;;;5.90;;
8993;SDS011;4532;50.886;4.700;2023-04-03T00:11:50;6.93;;;5.43;;
8993;SDS011;4532;50.886;4.700;2023-04-03T00:14:17;7.17;;;5.40;;
8993;SDS011;4532;50.886;4.700;2023-04-03T00:16:44;7.73;;;5.30;;
8993;SDS011;4532;50.886;4.700;2023-04-03T00:19:14;8.60;;;5.83;;
8993;SDS011;4532;50.886;4.700;2023-04-03T00:21:42;6.30;;;5.00;;
8993;SDS011;4532;50.886;4.700;2023-04-03T00:24:09;8.33;;;5.80;;
8993;SDS011;4532;50.886;4.700;2023-04-03T00:26:41;6.23;;;5.57;;
8993;SDS011;4532;50.886;4.700;2023-04-03T00:29:10;7.93;;;5.47;;
8993;SDS011;4532;50.886;4.700;2023-04-03T00:31:40;7.30;;;5.03;;
8993;SDS011;4532;50.886;4.700;2023-04-03T00:34:07;7.60;;;5.13;;
8993;SDS011;4532;50.886;4.700;2023-04-03T00:36:39;7.93;;;5.23;;
8993;SDS011;4532;50.886;4.700;2023-04-03T00:39:07;12.07;;;5.60;;
8993;SDS011;4532;50.886;4.700;2023-04-03T00:41:37;6.70;;;5.17;;
8993;SDS011;4532;50.886;4.700;2023-04-03T00:47:13;7.70;;;5.30;;
8993;SDS011;4532;50.886;4.700;2023-04-03T00:49:45;8.50;;;5.33;;
8993;SDS011;4532;50.886;4.700;2023-04-03T00:52:14;7.10;;;5.33;;
8993;SDS011;4532;50.886;4.700;2023-04-03T00:54:44;7.10;;;5.53;;
8993;SDS011;4532;50.886;4.700;2023-04-03T00:57:17;7.30;;;5.43;;
8993;SDS011;4532;50.886;4.700;2023-04-03T00:59:50;7.33;;;5.10;;
8993;SDS011;4532;50.886;4.700;2023-04-03T01:02:26;8.87;;;5.90;;
8993;SDS011;4532;50.886;4.700;2023-04-03T01:04:54;8.03;;;5.60;;
8993;SDS011;4532;50.886;4.700;2023-04-03T01:07:22;8.63;;;5.27;;
8993;SDS011;4532;50.886;4.700;2023-04-03T01:09:53;6.67;;;5.63;;
8993;SDS011;4532;50.886;4.700;2023-04-03T01:12:26;8.50;;;5.77;;
8993;SDS011;4532;50.886;4.700;2023-04-03T01:15:04;7.40;;;5.63;;
8993;SDS011;4532;50.886;4.700;2023-04-03T01:22:41;8.77;;;5.20;;
8993;SDS011;4532;50.886;4.700;2023-04-03T01:25:16;6.53;;;5.67;;
8993;SDS011;4532;50.886;4.700;2023-04-03T01:27:44;9.40;;;5.93;;
8993;SDS011;4532;50.886;4.700;2023-04-03T01:30:14;8.50;;;5.70;;
8993;SDS011;4532;50.886;4.700;2023-04-03T01:32:47;8.07;;;5.73;;
8993;SDS011;4532;50.886;4.700;2023-04-03T01:35:14;7.50;;;5.33;;
8993;SDS011;4532;50.886;4.700;2023-04-03T01:37:43;9.03;;;5.40;;
8993;SDS011;4532;50.886;4.700;2023-04-03T01:40:15;7.40;;;5.47;;
8993;SDS011;4532;50.886;4.700;2023-04-03T01:42:42;6.57;;;5.27;;
8993;SDS011;4532;50.886;4.700;2023-04-03T01:45:14;7.13;;;5.10;;
8993;SDS011;4532;50.886;4.700;2023-04-03T01:47:41;8.17;;;5.20;;
8993;SDS011;4532;50.886;4.700;2023-04-03T01:50:09;8.10;;;5.37;;
8993;SDS011;4532;50.886;4.700;2023-04-03T01:52:36;6.87;;;5.43;;
8993;SDS011;4532;50.886;4.700;2023-04-03T01:55:05;7.63;;;5.17;;
8993;SDS011;4532;50.886;4.700;2023-04-03T01:57:35;9.30;;;5.87;;
8993;SDS011;4532;50.886;4.700;2023-04-03T02:00:02;6.80;;;4.80;;
8993;SDS011;4532;50.886;4.700;2023-04-03T02:02:30;8.93;;;5.40;;
8993;SDS011;4532;50.886;4.700;2023-04-03T02:05:02;7.03;;;5.30;;
8993;SDS011;4532;50.886;4.700;2023-04-03T02:07:30;8.67;;;5.50;;
8993;SDS011;4532;50.886;4.700;2023-04-03T02:09:57;7.00;;;5.80;;
8993;SDS011;4532;50.886;4.700;2023-04-03T02:12:24;5.70;;;5.10;;
8993;SDS011;4532;50.886;4.700;2023-04-03T02:14:51;7.97;;;5.00;;
8993;SDS011;4532;50.886;4.700;2023-04-03T02:17:18;10.07;;;5.30;;
8993;SDS011;4532;50.886;4.700;2023-04-03T02:19:48;5.70;;;5.10;;
8993;SDS011;4532;50.886;4.700;2023-04-03T02:22:17;8.23;;;5.53;;
8993;SDS011;4532;50.886;4.700;2023-04-03T02:24:48;7.73;;;5.60;;
8993;SDS011;4532;50.886;4.700;2023-04-03T02:27:17;7.30;;;4.70;;
8993;SDS011;4532;50.886;4.700;2023-04-03T02:29:47;7.87;;;5.53;;
8993;SDS011;4532;50.886;4.700;2023-04-03T02:32:14;6.27;;;5.10;;
8993;SDS011;4532;50.886;4.700;2023-04-03T02:34:42;9.43;;;6.30;;
8993;SDS011;4532;50.886;4.700;2023-04-03T02:37:11;8.77;;;5.73;;
8993;SDS011;4532;50.886;4.700;2023-04-03T02:39:38;6.93;;;5.50;;
8993;SDS011;4532;50.886;4.700;2023-04-03T02:42:06;7.87;;;5.83;;
8993;SDS011;4532;50.886;4.700;2023-04-03T02:44:33;7.37;;;6.10;;
8993;SDS011;4532;50.886;4.700;2023-04-03T02:47:02;8.03;;;6.30;;
8993;SDS011;4532;50.886;4.700;2023-04-03T02:49:31;8.60;;;6.07;;
8993;SDS011;4532;50.886;4.700;2023-04-03T02:51:58;7.30;;;5.87;;
8993;SDS011;4532;50.886;4.700;2023-04-03T02:54:26;7.33;;;6.00;;
8993;SDS011;4532;50.886;4.700;2023-04-03T02:56:57;8.13;;;6.00;;
8993;SDS011;4532;50.886;4.700;2023-04-03T02:59:27;8.87;;;6.50;;
8993;SDS011;4532;50.886;4.700;2023-04-03T03:01:54;9.10;;;6.63;;
8993;SDS011;4532;50.886;4.700;2023-04-03T03:04:22;8.57;;;7.20;;
8993;SDS011;4532;50.886;4.700;2023-04-03T03:06:51;8.23;;;6.57;;
8993;SDS011;4532;50.886;4.700;2023-04-03T03:09:19;8.63;;;7.00;;
8993;SDS011;4532;50.886;4.700;2023-04-03T03:11:48;7.10;;;6.27;;
8993;SDS011;4532;50.886;4.700;2023-04-03T03:14:15;7.00;;;6.27;;
8993;SDS011;4532;50.886;4.700;2023-04-03T03:16:45;9.07;;;6.37;;
8993;SDS011;4532;50.886;4.700;2023-04-03T03:19:17;9.60;;;6.40;;
8993;SDS011;4532;50.886;4.700;2023-04-03T03:21:46;8.43;;;6.33;;
8993;SDS011;4532;50.886;4.700;2023-04-03T03:24:20;7.33;;;6.10;;
8993;SDS011;4532;50.886;4.700;2023-04-03T03:26:52;9.43;;;6.70;;
8993;SDS011;4532;50.886;4.700;2023-04-03T03:29:19;8.53;;;6.27;;
8993;SDS011;4532;50.886;4.700;2023-04-03T03:31:49;7.03;;;6.00;;
8993;SDS011;4532;50.886;4.700;2023-04-03T03:34:17;8.40;;;6.43;;
8993;SDS011;4532;50.886;4.700;2023-04-03T03:36:44;10.50;;;6.30;;
8993;SDS011;4532;50.886;4.700;2023-04-03T03:39:13;8.43;;;5.97;;
8993;SDS011;4532;50.886;4.700;2023-04-03T03:41:43;7.63;;;5.83;;
8993;SDS011;4532;50.886;4.700;2023-04-03T03:44:10;9.10;;;6.30;;
8993;SDS011;4532;50.886;4.700;2023-04-03T03:46:37;9.50;;;6.77;;
8993;SDS011;4532;50.886;4.700;2023-04-03T03:49:04;7.80;;;6.57;;
8993;SDS011;4532;50.886;4.700;2023-04-03T03:51:31;9.30;;;6.50;;
8993;SDS011;4532;50.886;4.700;2023-04-03T03:53:58;8.10;;;6.43;;
8993;SDS011;4532;50.886;4.700;2023-04-03T03:56:30;8.10;;;6.33;;
8993;SDS011;4532;50.886;4.700;2023-04-03T03:59:02;8.80;;;6.53;;
8993;SDS011;4532;50.886;4.700;2023-04-03T04:01:32;8.93;;;5.97;;
8993;SDS011;4532;50.886;4.700;2023-04-03T04:04:04;8.87;;;6.93;;
8993;SDS011;4532;50.886;4.700;2023-04-03T04:06:31;9.93;;;7.20;;
8993;SDS011;4532;50.886;4.700;2023-04-03T04:09:01;7.80;;;6.40;;
8993;SDS011;4532;50.886;4.700;2023-04-03T04:11:28;8.80;;;6.37;;
8993;SDS011;4532;50.886;4.700;2023-04-03T04:13:57;7.63;;;6.27;;
8993;SDS011;4532;50.886;4.700;2023-04-03T04:16:27;8.77;;;6.07;;
8993;SDS011;4532;50.886;4.700;2023-04-03T04:18:58;9.67;;;6.77;;
8993;SDS011;4532;50.886;4.700;2023-04-03T04:21:26;7.27;;;6.27;;
8993;SDS011;4532;50.886;4.700;2023-04-03T04:23:53;9.23;;;6.90;;
8993;SDS011;4532;50.886;4.700;2023-04-03T04:26:23;8.90;;;6.83;;
8993;SDS011;4532;50.886;4.700;2023-04-03T04:28:52;10.10;;;7.17;;
8993;SDS011;4532;50.886;4.700;2023-04-03T04:31:22;9.30;;;6.90;;
8993;SDS011;4532;50.886;4.700;2023-04-03T04:33:54;9.00;;;6.73;;
8993;SDS011;4532;50.886;4.700;2023-04-03T04:36:24;7.33;;;6.50;;
8993;SDS011;4532;50.886;4.700;2023-04-03T04:38:51;10.50;;;6.97;;
8993;SDS011;4532;50.886;4.700;2023-04-03T04:41:22;11.80;;;7.20;;
8993;SDS011;4532;50.886;4.700;2023-04-03T04:43:52;9.80;;;6.83;;
8993;SDS011;4532;50.886;4.700;2023-04-03T04:46:19;9.70;;;7.70;;
8993;SDS011;4532;50.886;4.700;2023-04-03T04:48:48;9.63;;;6.83;;
8993;SDS011;4532;50.886;4.700;2023-04-03T04:51:17;10.67;;;6.80;;
8993;SDS011;4532;50.886;4.700;2023-04-03T04:53:47;8.67;;;7.43;;
8993;SDS011;4532;50.886;4.700;2023-04-03T04:56:16;11.43;;;7.63;;
8993;SDS011;4532;50.886;4.700;2023-04-03T04:58:44;10.17;;;7.37;;
8993;SDS011;4532;50.886;4.700;2023-04-03T05:01:13;8.43;;;6.97;;
8993;SDS011;4532;50.886;4.700;2023-04-03T05:03:45;9.57;;;7.57;;
8993;SDS011;4532;50.886;4.700;2023-04-03T05:06:12;9.33;;;6.70;;
8993;SDS011;4532;50.886;4.700;2023-04-03T05:08:40;9.33;;;7.07;;
8993;SDS011;4532;50.886;4.700;2023-04-03T05:11:11;8.80;;;7.17;;
8993;SDS011;4532;50.886;4.700;2023-04-03T05:13:43;8.13;;;7.33;;
8993;SDS011;4532;50.886;4.700;2023-04-03T05:16:12;10.30;;;6.97;;
8993;SDS011;4532;50.886;4.700;2023-04-03T05:18:42;8.20;;;7.23;;
8993;SDS011;4532;50.886;4.700;2023-04-03T05:21:13;9.57;;;6.90;;
8993;SDS011;4532;50.886;4.700;2023-04-03T05:23:41;8.63;;;7.40;;
8993;SDS011;4532;50.886;4.700;2023-04-03T05:26:08;9.20;;;7.43;;
8993;SDS011;4532;50.886;4.700;2023-04-03T05:28:37;8.80;;;7.67;;
8993;SDS011;4532;50.886;4.700;2023-04-03T05:31:04;9.80;;;8.03;;
8993;SDS011;4532;50.886;4.700;2023-04-03T05:33:32;9.50;;;7.60;;
8993;SDS011;4532;50.886;4.700;2023-04-03T05:36:02;8.63;;;7.60;;
8993;SDS011;4532;50.886;4.700;2023-04-03T05:38:38;10.73;;;8.67;;
8993;SDS011;4532;50.886;4.700;2023-04-03T05:41:06;11.00;;;7.80;;
8993;SDS011;4532;50.886;4.700;2023-04-03T05:43:35;11.10;;;8.00;;
8993;SDS011;4532;50.886;4.700;2023-04-03T05:46:09;11.63;;;8.40;;
8993;SDS011;4532;50.886;4.700;2023-04-03T05:48:40;9.77;;;8.10;;
8993;SDS011;4532;50.886;4.700;2023-04-03T05:51:15;9.43;;;8.50;;
8993;SDS011;4532;50.886;4.700;2023-04-03T05:53:48;13.23;;;8.73;;
8993;SDS011;4532;50.886;4.700;2023-04-03T05:56:21;11.60;;;9.10;;
8993;SDS011;4532;50.886;4.700;2023-04-03T05:58:49;10.80;;;8.37;;
8993;SDS011;4532;50.886;4.700;2023-04-03T06:01:17;9.40;;;8.37;;
8993;SDS011;4532;50.886;4.700;2023-04-03T06:03:45;11.57;;;9.17;;
8993;SDS011;4532;50.886;4.700;2023-04-03T06:06:16;12.83;;;9.07;;
8993;SDS011;4532;50.886;4.700;2023-04-03T06:08:43;9.60;;;8.60;;
8993;SDS011;4532;50.886;4.700;2023-04-03T06:11:18;10.20;;;9.10;;
8993;SDS011;4532;50.886;4.700;2023-04-03T06:13:45;13.27;;;9.40;;
8993;SDS011;4532;50.886;4.700;2023-04-03T06:16:17;11.00;;;9.13;;
8993;SDS011;4532;50.886;4.700;2023-04-03T06:18:49;11.63;;;9.43;;
8993;SDS011;4532;50.886;4.700;2023-04-03T06:21:16;13.03;;;10.07;;
8993;SDS011;4532;50.886;4.700;2023-04-03T06:23:43;11.47;;;9.17;;
8993;SDS011;4532;50.886;4.700;2023-04-03T06:26:13;11.97;;;9.63;;
8993;SDS011;4532;50.886;4.700;2023-04-03T06:28:40;10.53;;;9.23;;
8993;SDS011;4532;50.886;4.700;2023-04-03T06:31:07;11.00;;;9.17;;
8993;SDS011;4532;50.886;4.700;2023-04-03T06:33:35;13.03;;;10.37;;
8993;SDS011;4532;50.886;4.700;2023-04-03T06:36:05;13.63;;;9.97;;
8993;SDS011;4532;50.886;4.700;2023-04-03T06:38:35;13.53;;;10.87;;
8993;SDS011;4532;50.886;4.700;2023-04-03T06:41:02;12.17;;;10.03;;
8993;SDS011;4532;50.886;4.700;2023-04-03T06:43:30;16.03;;;10.57;;
8993;SDS011;4532;50.886;4.700;2023-04-03T06:46:04;13.90;;;10.23;;
8993;SDS011;4532;50.886;4.700;2023-04-03T06:48:37;13.80;;;10.40;;
8993;SDS011;4532;50.886;4.700;2023-04-03T06:51:04;15.63;;;10.50;;
8993;SDS011;4532;50.886;4.700;2023-04-03T06:53:32;12.17;;;10.07;;
8993;SDS011;4532;50.886;4.700;2023-04-03T06:56:04;11.67;;;10.00;;
8993;SDS011;4532;50.886;4.700;2023-04-03T06:58:36;10.43;;;9.03;;
8993;SDS011;4532;50.886;4.700;2023-04-03T07:01:04;14.13;;;9.50;;
8993;SDS011;4532;50.886;4.700;2023-04-03T07:03:36;15.93;;;9.83;;
8993;SDS011;4532;50.886;4.700;2023-04-03T07:06:06;10.93;;;9.30;;
8993;SDS011;4532;50.886;4.700;2023-04-03T07:08:39;10.33;;;9.03;;
8993;SDS011;4532;50.886;4.700;2023-04-03T07:11:06;11.83;;;9.43;;
8993;SDS011;4532;50.886;4.700;2023-04-03T07:13:36;12.50;;;9.03;;
8993;SDS011;4532;50.886;4.700;2023-04-03T07:16:06;12.67;;;9.00;;
8993;SDS011;4532;50.886;4.700;2023-04-03T07:18:37;10.93;;;8.90;;
8993;SDS011;4532;50.886;4.700;2023-04-03T07:21:04;10.10;;;7.90;;
8993;SDS011;4532;50.886;4.700;2023-04-03T07:23:31;10.43;;;8.50;;
8993;SDS011;4532;50.886;4.700;2023-04-03T07:25:59;11.17;;;8.57;;
8993;SDS011;4532;50.886;4.700;2023-04-03T07:28:29;12.90;;;8.07;;
8993;SDS011;4532;50.886;4.700;2023-04-03T07:33:39;10.80;;;8.50;;
8993;SDS011;4532;50.886;4.700;2023-04-03T07:36:07;9.47;;;7.93;;
8993;SDS011;4532;50.886;4.700;2023-04-03T07:38:35;12.63;;;8.30;;
8993;SDS011;4532;50.886;4.700;2023-04-03T07:41:03;10.93;;;7.70;;
8993;SDS011;4532;50.886;4.700;2023-04-03T07:43:33;10.97;;;7.80;;
8993;SDS011;4532;50.886;4.700;2023-04-03T07:46:04;10.93;;;8.23;;
8993;SDS011;4532;50.886;4.700;2023-04-03T07:48:32;9.00;;;6.80;;
8993;SDS011;4532;50.886;4.700;2023-04-03T07:50:59;13.37;;;8.97;;
8993;SDS011;4532;50.886;4.700;2023-04-03T07:53:31;10.93;;;8.23;;
8993;SDS011;4532;50.886;4.700;2023-04-03T07:56:03;17.03;;;9.17;;
8993;SDS011;4532;50.886;4.700;2023-04-03T07:58:36;11.87;;;7.93;;
8993;SDS011;4532;50.886;4.700;2023-04-03T08:01:03;10.57;;;7.60;;
8993;SDS011;4532;50.886;4.700;2023-04-03T08:03:36;9.33;;;6.87;;
8993;SDS011;4532;50.886;4.700;2023-04-03T08:06:06;11.03;;;6.87;;
8993;SDS011;4532;50.886;4.700;2023-04-03T08:08:41;7.90;;;6.27;;
8993;SDS011;4532;50.886;4.700;2023-04-03T08:11:09;10.77;;;6.73;;
8993;SDS011;4532;50.886;4.700;2023-04-03T08:13:37;11.33;;;6.70;;
8993;SDS011;4532;50.886;4.700;2023-04-03T08:16:15;9.93;;;6.67;;
8993;SDS011;4532;50.886;4.700;2023-04-03T08:18:47;9.83;;;6.37;;
8993;SDS011;4532;50.886;4.700;2023-04-03T08:21:17;9.73;;;6.80;;
8993;SDS011;4532;50.886;4.700;2023-04-03T08:23:49;12.40;;;6.43;;
8993;SDS011;4532;50.886;4.700;2023-04-03T08:26:22;11.17;;;5.80;;
8993;SDS011;4532;50.886;4.700;2023-04-03T08:28:49;10.80;;;6.03;;
8993;SDS011;4532;50.886;4.700;2023-04-03T08:31:17;12.47;;;6.00;;
8993;SDS011;4532;50.886;4.700;2023-04-03T08:33:48;8.80;;;6.17;;
8993;SDS011;4532;50.886;4.700;2023-04-03T08:38:52;10.40;;;5.60;;
8993;SDS011;4532;50.886;4.700;2023-04-03T08:46:53;7.30;;;5.07;;
8993;SDS011;4532;50.886;4.700;2023-04-03T08:52:01;6.73;;;4.73;;
8993;SDS011;4532;50.886;4.700;2023-04-03T08:54:50;7.13;;;4.63;;
8993;SDS011;4532;50.886;4.700;2023-04-03T08:57:25;8.63;;;4.50;;
8993;SDS011;4532;50.886;4.700;2023-04-03T09:00:19;6.23;;;4.13;;
8993;SDS011;4532;50.886;4.700;2023-04-03T09:16:18;8.80;;;3.33;;
8993;SDS011;4532;50.886;4.700;2023-04-03T09:19:06;5.50;;;3.13;;
8993;SDS011;4532;50.886;4.700;2023-04-03T09:22:32;6.93;;;3.37;;
8993;SDS011;4532;50.886;4.700;2023-04-03T09:25:02;7.70;;;3.37;;
8993;SDS011;4532;50.886;4.700;2023-04-03T09:27:38;6.40;;;3.67;;
8993;SDS011;4532;50.886;4.700;2023-04-03T09:30:06;7.07;;;3.27;;
8993;SDS011;4532;50.886;4.700;2023-04-03T09:32:43;8.87;;;3.60;;
8993;SDS011;4532;50.886;4.700;2023-04-03T09:40:49;6.23;;;3.57;;
8993;SDS011;4532;50.886;4.700;2023-04-03T09:43:38;5.17;;;3.30;;
8993;SDS011;4532;50.886;4.700;2023-04-03T09:46:18;7.07;;;3.37;;
8993;SDS011;4532;50.886;4.700;2023-04-03T09:49:00;8.27;;;3.60;;
8993;SDS011;4532;50.886;4.700;2023-04-03T09:51:37;8.50;;;3.53;;
8993;SDS011;4532;50.886;4.700;2023-04-03T09:57:12;8.73;;;3.03;;
8993;SDS011;4532;50.886;4.700;2023-04-03T09:59:58;7.20;;;3.07;;
8993;SDS011;4532;50.886;4.700;2023-04-03T10:02:35;8.87;;;3.43;;
8993;SDS011;4532;50.886;4.700;2023-04-03T10:10:45;5.33;;;3.20;;
8993;SDS011;4532;50.886;4.700;2023-04-03T10:13:18;7.13;;;3.30;;
8993;SDS011;4532;50.886;4.700;2023-04-03T10:16:03;6.03;;;2.80;;
8993;SDS011;4532;50.886;4.700;2023-04-03T10:18:45;6.77;;;2.80;;
8993;SDS011;4532;50.886;4.700;2023-04-03T10:25:29;4.87;;;2.70;;
8993;SDS011;4532;50.886;4.700;2023-04-03T10:33:17;8.27;;;2.60;;
8993;SDS011;4532;50.886;4.700;2023-04-03T10:41:40;3.43;;;2.00;;
8993;SDS011;4532;50.886;4.700;2023-04-03T10:46:44;6.87;;;2.50;;
8993;SDS011;4532;50.886;4.700;2023-04-03T10:57:51;3.77;;;2.43;;
8993;SDS011;4532;50.886;4.700;2023-04-03T11:00:29;3.90;;;1.70;;
8993;SDS011;4532;50.886;4.700;2023-04-03T11:03:13;3.73;;;1.70;;
8993;SDS011;4532;50.886;4.700;2023-04-03T11:05:50;6.50;;;2.13;;
8993;SDS011;4532;50.886;4.700;2023-04-03T11:11:07;8.17;;;2.17;;
8993;SDS011;4532;50.886;4.700;2023-04-03T11:13:40;3.90;;;1.80;;
8993;SDS011;4532;50.886;4.700;2023-04-03T11:16:14;8.53;;;2.23;;
8993;SDS011;4532;50.886;4.700;2023-04-03T11:18:52;4.03;;;1.70;;
8993;SDS011;4532;50.886;4.700;2023-04-03T11:21:31;5.73;;;1.83;;
8993;SDS011;4532;50.886;4.700;2023-04-03T11:24:09;4.20;;;1.60;;
8993;SDS011;4532;50.886;4.700;2023-04-03T11:26:43;4.97;;;2.00;;
8993;SDS011;4532;50.886;4.700;2023-04-03T11:29:19;3.53;;;1.40;;
8993;SDS011;4532;50.886;4.700;2023-04-03T11:34:53;5.70;;;1.83;;
8993;SDS011;4532;50.886;4.700;2023-04-03T11:37:36;2.77;;;1.70;;
8993;SDS011;4532;50.886;4.700;2023-04-03T11:40:07;4.43;;;1.90;;
8993;SDS011;4532;50.886;4.700;2023-04-03T11:42:52;3.53;;;1.50;;
8993;SDS011;4532;50.886;4.700;2023-04-03T11:45:31;2.50;;;1.40;;
8993;SDS011;4532;50.886;4.700;2023-04-03T11:48:06;6.27;;;1.70;;
8993;SDS011;4532;50.886;4.700;2023-04-03T11:50:49;6.50;;;1.57;;
8993;SDS011;4532;50.886;4.700;2023-04-03T11:58:27;7.33;;;2.23;;
8993;SDS011;4532;50.886;4.700;2023-04-03T12:08:44;2.00;;;1.00;;
8993;SDS011;4532;50.886;4.700;2023-04-03T12:11:14;1.70;;;1.23;;
8993;SDS011;4532;50.886;4.700;2023-04-03T12:51:56;2.67;;;1.13;;
8993;SDS011;4532;50.886;4.700;2023-04-03T12:54:26;4.93;;;1.20;;
8993;SDS011;4532;50.886;4.700;2023-04-03T13:00:00;2.07;;;1.10;;
8993;SDS011;4532;50.886;4.700;2023-04-03T13:02:52;3.87;;;1.53;;
8993;SDS011;4532;50.886;4.700;2023-04-03T13:05:22;4.23;;;1.80;;
8993;SDS011;4532;50.886;4.700;2023-04-03T13:07:52;4.30;;;1.63;;
8993;SDS011;4532;50.886;4.700;2023-04-03T13:10:41;4.33;;;1.60;;
8993;SDS011;4532;50.886;4.700;2023-04-03T13:13:22;3.43;;;1.77;;
8993;SDS011;4532;50.886;4.700;2023-04-03T13:15:55;5.50;;;1.53;;
8993;SDS011;4532;50.886;4.700;2023-04-03T13:23:40;5.57;;;1.50;;
8993;SDS011;4532;50.886;4.700;2023-04-03T13:26:11;3.87;;;1.27;;
8993;SDS011;4532;50.886;4.700;2023-04-03T13:28:42;4.13;;;1.63;;
8993;SDS011;4532;50.886;4.700;2023-04-03T13:36:30;3.97;;;1.70;;
8993;SDS011;4532;50.886;4.700;2023-04-03T13:41:40;4.17;;;1.40;;
8993;SDS011;4532;50.886;4.700;2023-04-03T13:46:44;3.10;;;1.27;;
8993;SDS011;4532;50.886;4.700;2023-04-03T13:49:22;3.47;;;1.60;;
8993;SDS011;4532;50.886;4.700;2023-04-03T13:51:57;2.43;;;1.17;;
8993;SDS011;4532;50.886;4.700;2023-04-03T13:54:34;2.33;;;1.00;;
8993;SDS011;4532;50.886;4.700;2023-04-03T13:57:11;3.40;;;1.33;;
8993;SDS011;4532;50.886;4.700;2023-04-03T13:59:45;3.27;;;1.23;;
8993;SDS011;4532;50.886;4.700;2023-04-03T14:02:21;2.17;;;1.13;;
8993;SDS011;4532;50.886;4.700;2023-04-03T14:04:56;2.10;;;1.10;;
8993;SDS011;4532;50.886;4.700;2023-04-03T14:07:33;3.00;;;1.20;;
8993;SDS011;4532;50.886;4.700;2023-04-03T14:10:03;2.27;;;1.20;;
8993;SDS011;4532;50.886;4.700;2023-04-03T14:12:38;2.77;;;1.30;;
8993;SDS011;4532;50.886;4.700;2023-04-03T14:15:27;2.50;;;1.30;;
8993;SDS011;4532;50.886;4.700;2023-04-03T14:17:59;3.17;;;1.60;;
8993;SDS011;4532;50.886;4.700;2023-04-03T14:20:34;2.20;;;1.20;;
8993;SDS011;4532;50.886;4.700;2023-04-03T14:23:06;3.60;;;1.70;;
8993;SDS011;4532;50.886;4.700;2023-04-03T14:25:34;2.97;;;1.20;;
8993;SDS011;4532;50.886;4.700;2023-04-03T14:28:15;3.97;;;1.30;;
8993;SDS011;4532;50.886;4.700;2023-04-03T14:30:49;3.60;;;1.13;;
8993;SDS011;4532;50.886;4.700;2023-04-03T14:33:22;3.73;;;1.60;;
8993;SDS011;4532;50.886;4.700;2023-04-03T14:35:56;3.50;;;1.50;;
8993;SDS011;4532;50.886;4.700;2023-04-03T14:38:29;2.20;;;1.20;;
8993;SDS011;4532;50.886;4.700;2023-04-03T14:40:58;2.77;;;1.30;;
8993;SDS011;4532;50.886;4.700;2023-04-03T14:43:41;3.17;;;1.53;;
8993;SDS011;4532;50.886;4.700;2023-04-03T14:46:14;2.33;;;1.50;;
8993;SDS011;4532;50.886;4.700;2023-04-03T14:48:47;2.80;;;1.60;;
8993;SDS011;4532;50.886;4.700;2023-04-03T14:51:14;5.37;;;1.50;;
8993;SDS011;4532;50.886;4.700;2023-04-03T14:53:42;3.97;;;1.77;;
8993;SDS011;4532;50.886;4.700;2023-04-03T14:58:46;1.97;;;1.50;;
8993;SDS011;4532;50.886;4.700;2023-04-03T15:01:19;4.60;;;1.93;;
8993;SDS011;4532;50.886;4.700;2023-04-03T15:03:46;4.73;;;1.57;;
8993;SDS011;4532;50.886;4.700;2023-04-03T15:06:14;3.23;;;1.30;;
8993;SDS011;4532;50.886;4.700;2023-04-03T15:08:45;4.33;;;1.53;;
8993;SDS011;4532;50.886;4.700;2023-04-03T15:11:15;2.93;;;1.90;;
8993;SDS011;4532;50.886;4.700;2023-04-03T15:13:46;3.17;;;1.57;;
8993;SDS011;4532;50.886;4.700;2023-04-03T15:16:16;3.73;;;1.83;;
8993;SDS011;4532;50.886;4.700;2023-04-03T15:18:47;2.80;;;1.60;;
8993;SDS011;4532;50.886;4.700;2023-04-03T15:21:15;4.67;;;1.73;;
8993;SDS011;4532;50.886;4.700;2023-04-03T15:23:44;3.03;;;1.67;;
8993;SDS011;4532;50.886;4.700;2023-04-03T15:26:13;4.60;;;2.03;;
8993;SDS011;4532;50.886;4.700;2023-04-03T15:28:41;4.50;;;1.70;;
8993;SDS011;4532;50.886;4.700;2023-04-03T15:31:11;4.93;;;1.80;;
8993;SDS011;4532;50.886;4.700;2023-04-03T15:33:41;3.10;;;1.83;;
8993;SDS011;4532;50.886;4.700;2023-04-03T15:36:08;5.03;;;2.00;;
8993;SDS011;4532;50.886;4.700;2023-04-03T15:38:45;5.40;;;1.77;;
8993;SDS011;4532;50.886;4.700;2023-04-03T15:41:12;3.47;;;1.80;;
8993;SDS011;4532;50.886;4.700;2023-04-03T15:43:39;4.97;;;1.63;;
8993;SDS011;4532;50.886;4.700;2023-04-03T15:46:09;5.33;;;1.70;;
8993;SDS011;4532;50.886;4.700;2023-04-03T15:48:39;5.73;;;2.00;;
8993;SDS011;4532;50.886;4.700;2023-04-03T15:51:08;3.77;;;1.80;;
8993;SDS011;4532;50.886;4.700;2023-04-03T15:53:38;3.47;;;1.80;;
8993;SDS011;4532;50.886;4.700;2023-04-03T15:56:08;2.80;;;1.90;;
8993;SDS011;4532;50.886;4.700;2023-04-03T15:58:36;5.87;;;2.17;;
8993;SDS011;4532;50.886;4.700;2023-04-03T16:01:06;3.33;;;2.20;;
8993;SDS011;4532;50.886;4.700;2023-04-03T16:03:35;3.97;;;1.97;;
8993;SDS011;4532;50.886;4.700;2023-04-03T16:06:05;3.30;;;2.17;;
8993;SDS011;4532;50.886;4.700;2023-04-03T16:08:35;3.43;;;1.73;;
8993;SDS011;4532;50.886;4.700;2023-04-03T16:11:03;3.17;;;1.67;;
8993;SDS011;4532;50.886;4.700;2023-04-03T16:13:30;3.47;;;2.10;;
8993;SDS011;4532;50.886;4.700;2023-04-03T16:16:03;4.13;;;2.30;;
8993;SDS011;4532;50.886;4.700;2023-04-03T16:18:41;4.43;;;2.23;;
8993;SDS011;4532;50.886;4.700;2023-04-03T16:21:08;4.17;;;1.57;;
8993;SDS011;4532;50.886;4.700;2023-04-03T16:23:42;2.23;;;1.73;;
8993;SDS011;4532;50.886;4.700;2023-04-03T16:26:12;3.77;;;1.70;;
8993;SDS011;4532;50.886;4.700;2023-04-03T16:28:42;3.37;;;1.70;;
8993;SDS011;4532;50.886;4.700;2023-04-03T16:31:10;5.93;;;2.10;;
8993;SDS011;4532;50.886;4.700;2023-04-03T16:33:39;3.93;;;2.30;;
8993;SDS011;4532;50.886;4.700;2023-04-03T16:36:11;3.87;;;1.97;;
8993;SDS011;4532;50.886;4.700;2023-04-03T16:38:43;7.67;;;2.00;;
8993;SDS011;4532;50.886;4.700;2023-04-03T16:41:15;3.90;;;2.10;;
8993;SDS011;4532;50.886;4.700;2023-04-03T16:43:46;2.73;;;1.77;;
8993;SDS011;4532;50.886;4.700;2023-04-03T16:46:15;5.60;;;2.17;;
8993;SDS011;4532;50.886;4.700;2023-04-03T16:48:44;5.60;;;1.73;;
8993;SDS011;4532;50.886;4.700;2023-04-03T16:51:12;4.77;;;2.07;;
8993;SDS011;4532;50.886;4.700;2023-04-03T16:53:42;3.27;;;1.70;;
8993;SDS011;4532;50.886;4.700;2023-04-03T16:56:13;3.73;;;1.80;;
8993;SDS011;4532;50.886;4.700;2023-04-03T16:58:46;4.63;;;2.20;;
8993;SDS011;4532;50.886;4.700;2023-04-03T17:01:17;4.03;;;1.70;;
8993;SDS011;4532;50.886;4.700;2023-04-03T17:03:47;4.93;;;1.70;;
8993;SDS011;4532;50.886;4.700;2023-04-03T17:06:18;2.17;;;1.70;;
8993;SDS011;4532;50.886;4.700;2023-04-03T17:08:50;4.10;;;2.00;;
8993;SDS011;4532;50.886;4.700;2023-04-03T17:11:18;3.43;;;1.63;;
8993;SDS011;4532;50.886;4.700;2023-04-03T17:13:45;4.80;;;1.90;;
8993;SDS011;4532;50.886;4.700;2023-04-03T17:16:13;4.60;;;1.77;;
8993;SDS011;4532;50.886;4.700;2023-04-03T17:18:42;4.17;;;2.00;;
8993;SDS011;4532;50.886;4.700;2023-04-03T17:21:13;3.73;;;2.10;;
8993;SDS011;4532;50.886;4.700;2023-04-03T17:23:44;4.80;;;1.73;;
8993;SDS011;4532;50.886;4.700;2023-04-03T17:26:20;4.17;;;1.67;;
8993;SDS011;4532;50.886;4.700;2023-04-03T17:28:52;6.40;;;1.70;;
8993;SDS011;4532;50.886;4.700;2023-04-03T17:31:20;3.97;;;2.00;;
8993;SDS011;4532;50.886;4.700;2023-04-03T17:33:49;3.57;;;1.97;;
8993;SDS011;4532;50.886;4.700;2023-04-03T17:36:21;3.03;;;2.07;;
8993;SDS011;4532;50.886;4.700;2023-04-03T17:38:49;3.10;;;1.70;;
8993;SDS011;4532;50.886;4.700;2023-04-03T17:41:20;3.40;;;1.50;;
8993;SDS011;4532;50.886;4.700;2023-04-03T17:43:48;3.17;;;1.63;;
8993;SDS011;4532;50.886;4.700;2023-04-03T17:46:17;3.40;;;1.73;;
8993;SDS011;4532;50.886;4.700;2023-04-03T17:48:44;4.23;;;1.87;;
8993;SDS011;4532;50.886;4.700;2023-04-03T17:51:13;4.37;;;1.93;;
8993;SDS011;4532;50.886;4.700;2023-04-03T17:53:42;5.37;;;1.77;;
8993;SDS011;4532;50.886;4.700;2023-04-03T17:56:11;3.73;;;1.67;;
8993;SDS011;4532;50.886;4.700;2023-04-03T17:58:40;4.60;;;1.60;;
8993;SDS011;4532;50.886;4.700;2023-04-03T18:01:15;4.53;;;1.80;;
8993;SDS011;4532;50.886;4.700;2023-04-03T18:03:44;4.17;;;1.70;;
8993;SDS011;4532;50.886;4.700;2023-04-03T18:06:20;3.87;;;1.67;;
8993;SDS011;4532;50.886;4.700;2023-04-03T18:08:50;3.97;;;1.63;;
8993;SDS011;4532;50.886;4.700;2023-04-03T18:11:24;4.87;;;1.73;;